createdAt,value
2022-10-23T00:02:14.900Z,5.46
2022-10-23T00:04:43.927Z,5.46
2022-10-23T00:07:14.334Z,5.47
2022-10-23T00:09:45.557Z,5.46
2022-10-23T00:12:14.640Z,5.43
2022-10-23T00:14:48.673Z,5.44
2022-10-23T00:17:18.211Z,5.32
2022-10-23T00:19:47.214Z,5.31
2022-10-23T00:22:29.800Z,5.34
2022-10-23T00:25:01.125Z,5.30
2022-10-23T00:27:37.221Z,5.25
2022-10-23T00:30:07.649Z,5.25
2022-10-23T00:32:43.050Z,5.25
2022-10-23T00:35:12.332Z,5.20
2022-10-23T00:37:41.651Z,5.20
2022-10-23T00:40:15.027Z,5.19
2022-10-23T00:42:44.366Z,5.17
2022-10-23T00:45:21.853Z,5.18
2022-10-23T00:47:51.767Z,5.16
2022-10-23T00:50:28.303Z,5.20
2022-10-23T00:52:59.124Z,5.20
2022-10-23T00:55:36.388Z,5.18
2022-10-23T00:58:05.709Z,5.17
2022-10-23T01:00:45.096Z,5.08
2022-10-23T01:03:16.160Z,5.17
2022-10-23T01:05:51.137Z,5.14
2022-10-23T01:08:30.210Z,5.08
2022-10-23T01:11:08.137Z,5.03
2022-10-23T01:13:51.981Z,4.96
2022-10-23T01:16:25.702Z,4.86
2022-10-23T01:19:07.948Z,4.78
2022-10-23T01:21:46.823Z,4.85
2022-10-23T01:24:25.693Z,4.82
2022-10-23T01:27:16.298Z,4.74
2022-10-23T01:29:50.481Z,4.59
2022-10-23T01:32:29.354Z,4.46
2022-10-23T01:35:04.271Z,4.33
2022-10-23T01:37:40.430Z,4.13
2022-10-23T01:40:17.160Z,3.94
2022-10-23T01:42:54.358Z,3.77
2022-10-23T01:45:32.034Z,3.63
2022-10-23T01:48:04.582Z,3.49
2022-10-23T01:50:35.079Z,3.40
2022-10-23T01:53:06.840Z,3.29
2022-10-23T01:55:43.834Z,3.26
2022-10-23T01:58:23.121Z,3.18
2022-10-23T02:00:54.642Z,3.08
2022-10-23T02:03:26.302Z,3.00
2022-10-23T02:05:55.682Z,2.92
2022-10-23T02:08:25.111Z,2.87
2022-10-23T02:11:08.869Z,2.87
2022-10-23T02:13:46.815Z,2.84
2022-10-23T02:16:33.097Z,2.79
2022-10-23T02:19:21.211Z,2.77
2022-10-23T02:21:55.655Z,2.77
2022-10-23T02:24:32.112Z,2.71
2022-10-23T02:27:04.535Z,2.69
2022-10-23T02:29:41.898Z,2.66
2022-10-23T02:32:13.015Z,2.61
2022-10-23T02:34:42.971Z,2.58
2022-10-23T02:37:13.134Z,2.53
2022-10-23T02:39:42.817Z,2.51
2022-10-23T02:42:20.009Z,2.46
2022-10-23T02:44:57.878Z,2.36
2022-10-23T02:47:37.761Z,2.49
2022-10-23T02:50:18.620Z,2.43
2022-10-23T02:52:55.631Z,2.42
2022-10-23T02:55:35.006Z,2.42
2022-10-23T02:58:15.089Z,2.41
2022-10-23T03:00:51.069Z,2.43
2022-10-23T03:03:25.294Z,2.31
2022-10-23T03:05:54.853Z,2.25
2022-10-23T03:08:24.646Z,2.20
2022-10-23T03:13:30.342Z,2.16
2022-10-23T03:16:02.149Z,2.13
2022-10-23T03:18:31.064Z,2.19
2022-10-23T03:21:01.828Z,2.09
2022-10-23T03:23:30.966Z,2.05
2022-10-23T03:26:02.237Z,2.08
2022-10-23T03:28:38.060Z,2.07
2022-10-23T03:31:09.226Z,2.09
2022-10-23T03:33:40.678Z,2.07
2022-10-23T03:36:13.204Z,2.10
2022-10-23T03:38:42.735Z,2.08
2022-10-23T03:41:12.985Z,2.07
2022-10-23T03:43:42.129Z,2.03
2022-10-23T03:46:13.172Z,2.08
2022-10-23T03:48:42.903Z,2.06
2022-10-23T03:51:12.892Z,1.81
2022-10-23T03:53:48.506Z,2.03
2022-10-23T03:56:29.987Z,2.02
2022-10-23T03:58:59.159Z,1.99
2022-10-23T04:01:31.015Z,1.96
2022-10-23T04:04:00.508Z,1.95
2022-10-23T04:06:29.594Z,1.99
2022-10-23T04:09:05.690Z,2.00
2022-10-23T04:11:35.633Z,1.95
2022-10-23T04:14:05.613Z,1.96
2022-10-23T04:16:37.162Z,1.95
2022-10-23T04:19:06.803Z,1.96
2022-10-23T04:21:40.266Z,1.94
2022-10-23T04:24:09.802Z,1.93
2022-10-23T04:26:39.406Z,1.86
2022-10-23T04:29:12.082Z,1.93
2022-10-23T04:31:58.934Z,1.95
2022-10-23T04:34:28.034Z,2.00
2022-10-23T04:36:57.235Z,2.07
2022-10-23T04:39:26.378Z,2.12
2022-10-23T04:41:55.752Z,2.11
2022-10-23T04:44:27.390Z,2.09
2022-10-23T04:46:58.568Z,2.07
2022-10-23T04:49:27.945Z,2.10
2022-10-23T04:52:15.635Z,2.19
2022-10-23T04:55:08.550Z,2.32
2022-10-23T04:57:45.800Z,2.45
2022-10-23T05:00:24.795Z,2.30
2022-10-23T05:03:03.559Z,2.51
2022-10-23T05:05:38.244Z,2.72
2022-10-23T05:08:48.117Z,2.84
2022-10-23T05:11:46.469Z,2.97
2022-10-23T05:16:57.067Z,3.19
2022-10-23T05:19:32.369Z,3.28
2022-10-23T05:22:02.425Z,3.40
2022-10-23T05:24:53.164Z,3.56
2022-10-23T05:27:32.426Z,3.80
2022-10-23T05:30:02.099Z,3.94
2022-10-23T05:32:36.738Z,4.15
2022-10-23T05:35:16.427Z,4.15
2022-10-23T05:37:54.348Z,4.18
2022-10-23T05:40:26.481Z,4.27
2022-10-23T05:43:01.845Z,4.35
2022-10-23T05:45:43.558Z,4.44
2022-10-23T05:48:34.241Z,4.53
2022-10-23T05:51:25.269Z,4.63
2022-10-23T05:54:02.505Z,4.75
2022-10-23T05:56:42.138Z,4.84
2022-10-23T05:59:23.018Z,4.97
2022-10-23T06:01:56.846Z,4.97
2022-10-23T06:04:51.967Z,5.06
2022-10-23T06:08:06.862Z,5.18
2022-10-23T06:10:36.340Z,5.30
2022-10-23T06:13:08.882Z,5.29
2022-10-23T06:15:43.960Z,5.39
2022-10-23T06:18:19.338Z,5.41
2022-10-23T06:21:02.416Z,5.50
2022-10-23T06:23:35.775Z,5.34
2022-10-23T06:26:20.015Z,5.66
2022-10-23T06:28:58.295Z,5.64
2022-10-23T06:31:28.375Z,5.68
2022-10-23T06:34:05.665Z,5.69
2022-10-23T06:36:35.255Z,5.71
2022-10-23T06:39:32.315Z,5.88
2022-10-23T06:42:16.989Z,5.94
2022-10-23T06:45:00.385Z,5.85
2022-10-23T06:47:47.443Z,6.10
2022-10-23T06:50:30.711Z,6.16
2022-10-23T06:53:00.836Z,6.28
2022-10-23T06:55:44.084Z,6.37
2022-10-23T06:58:14.080Z,6.24
2022-10-23T07:01:12.716Z,6.07
2022-10-23T07:03:44.549Z,6.03
2022-10-23T07:06:14.374Z,6.16
2022-10-23T07:08:43.420Z,6.23
2022-10-23T07:11:42.571Z,6.31
2022-10-23T07:14:11.828Z,6.31
2022-10-23T07:16:41.076Z,6.32
2022-10-23T07:19:11.395Z,6.34
2022-10-23T07:21:58.520Z,6.38
2022-10-23T07:24:38.032Z,6.37
2022-10-23T07:27:18.010Z,6.34
2022-10-23T07:29:52.745Z,6.37
2022-10-23T07:32:23.462Z,6.44
2022-10-23T07:35:18.913Z,6.47
2022-10-23T07:38:05.293Z,6.50
2022-10-23T07:40:38.977Z,6.72
2022-10-23T07:43:13.623Z,6.63
2022-10-23T07:45:43.482Z,6.52
2022-10-23T07:48:27.328Z,6.52
2022-10-23T07:51:07.776Z,6.58
2022-10-23T07:53:40.327Z,6.56
2022-10-23T07:56:29.461Z,6.50
2022-10-23T07:59:20.298Z,6.60
2022-10-23T08:01:56.148Z,6.63
2022-10-23T08:04:35.078Z,6.69
2022-10-23T08:07:19.761Z,6.80
2022-10-23T08:09:51.047Z,6.82
2022-10-23T08:12:20.355Z,6.86
2022-10-23T08:14:57.910Z,6.88
2022-10-23T08:17:34.438Z,6.89
2022-10-23T08:20:23.823Z,6.74
2022-10-23T08:22:53.249Z,6.71
2022-10-23T08:25:26.090Z,6.65
2022-10-23T08:27:57.309Z,6.58
2022-10-23T08:30:28.855Z,6.91
2022-10-23T08:33:05.187Z,7.14
2022-10-23T08:35:38.391Z,7.31
2022-10-23T08:38:09.237Z,7.39
2022-10-23T08:40:46.894Z,7.35
2022-10-23T08:43:48.434Z,7.24
2022-10-23T08:46:33.260Z,7.20
2022-10-23T08:49:38.307Z,7.07
2022-10-23T08:52:17.671Z,7.08
2022-10-23T08:55:02.967Z,7.07
2022-10-23T08:57:40.044Z,6.91
2022-10-23T09:00:16.569Z,6.82
2022-10-23T09:02:50.346Z,6.78
2022-10-23T09:05:23.702Z,6.76
2022-10-23T09:08:03.048Z,6.78
2022-10-23T09:10:45.991Z,6.81
2022-10-23T09:13:38.177Z,6.93
2022-10-23T09:16:16.335Z,7.01
2022-10-23T09:18:51.451Z,7.03
2022-10-23T09:21:21.489Z,6.93
2022-10-23T09:23:50.484Z,6.94
2022-10-23T09:26:25.359Z,6.68
2022-10-23T09:29:03.993Z,6.45
2022-10-23T09:31:33.416Z,6.57
2022-10-23T09:34:06.473Z,6.44
2022-10-23T09:36:38.045Z,6.73
2022-10-23T09:39:24.899Z,6.85
2022-10-23T09:41:56.338Z,6.88
2022-10-23T09:44:28.279Z,6.91
2022-10-23T09:47:12.694Z,6.93
2022-10-23T09:49:50.414Z,6.98
2022-10-23T09:52:27.404Z,6.98
2022-10-23T09:54:59.394Z,7.07
2022-10-23T09:57:33.553Z,6.99
2022-10-23T10:00:06.811Z,6.93
2022-10-23T10:05:30.759Z,6.89
2022-10-23T10:08:16.049Z,6.71
2022-10-23T10:10:50.906Z,6.71
2022-10-23T10:13:41.852Z,6.71
2022-10-23T10:16:18.017Z,6.75
2022-10-23T10:18:55.827Z,6.72
2022-10-23T10:21:32.398Z,6.71
2022-10-23T10:24:10.410Z,6.73
2022-10-23T10:26:46.514Z,6.72
2022-10-23T10:29:29.558Z,6.68
2022-10-23T10:32:07.747Z,6.77
2022-10-23T10:34:52.234Z,6.81
2022-10-23T10:37:29.663Z,6.78
2022-10-23T10:40:04.439Z,6.77
2022-10-23T10:42:47.493Z,6.77
2022-10-23T10:45:28.925Z,6.74
2022-10-23T10:48:16.918Z,6.67
2022-10-23T10:51:31.057Z,6.59
2022-10-23T10:54:16.273Z,6.58
2022-10-23T10:56:50.961Z,6.39
2022-10-23T10:59:26.384Z,6.45
2022-10-23T11:02:03.406Z,6.44
2022-10-23T11:07:23.831Z,6.42
2022-10-23T11:09:56.023Z,6.41
2022-10-23T11:12:26.936Z,6.40
2022-10-23T11:14:57.149Z,6.44
2022-10-23T11:17:30.485Z,6.39
2022-10-23T11:20:17.427Z,6.52
2022-10-23T11:22:54.196Z,6.50
2022-10-23T11:25:52.219Z,6.52
2022-10-23T11:28:36.798Z,6.47
2022-10-23T11:31:16.529Z,6.46
2022-10-23T11:34:15.494Z,6.48
2022-10-23T11:36:47.795Z,6.38
2022-10-23T11:39:25.062Z,6.28
2022-10-23T11:42:16.700Z,6.36
2022-10-23T11:44:46.647Z,6.32
2022-10-23T11:47:39.331Z,6.40
2022-10-23T11:50:29.262Z,6.48
2022-10-23T11:53:19.423Z,6.45
2022-10-23T11:56:07.314Z,6.51
2022-10-23T11:58:47.800Z,6.51
2022-10-23T12:01:38.817Z,6.52
2022-10-23T12:04:27.924Z,6.50
2022-10-23T12:07:01.676Z,6.48
2022-10-23T12:09:35.684Z,6.35
2022-10-23T12:12:18.933Z,6.48
2022-10-23T12:14:51.717Z,6.43
2022-10-23T12:17:37.574Z,6.42
2022-10-23T12:20:21.217Z,6.45
2022-10-23T12:22:58.306Z,6.43
2022-10-23T12:25:36.697Z,6.38
2022-10-23T12:28:10.604Z,6.37
2022-10-23T12:31:02.467Z,6.42
2022-10-23T12:33:39.147Z,6.44
2022-10-23T12:38:58.629Z,6.40
2022-10-23T12:41:31.462Z,6.42
2022-10-23T12:44:04.176Z,6.45
2022-10-23T12:46:44.126Z,6.51
2022-10-23T12:56:07.338Z,6.20
2022-10-23T12:58:37.545Z,6.15
2022-10-23T13:01:14.395Z,6.15
2022-10-23T13:03:44.036Z,6.16
2022-10-23T13:06:14.310Z,6.13
2022-10-23T13:08:47.423Z,6.25
2022-10-23T13:11:47.939Z,6.36
2022-10-23T13:14:40.737Z,6.32
2022-10-23T13:17:14.412Z,6.32
2022-10-23T13:19:43.601Z,6.39
2022-10-23T13:22:21.406Z,6.39
2022-10-23T13:24:50.800Z,6.29
2022-10-23T13:27:37.458Z,6.44
2022-10-23T13:30:27.851Z,6.36
2022-10-23T13:32:57.288Z,6.41
2022-10-23T13:35:26.930Z,6.36
2022-10-23T13:38:10.198Z,6.42
2022-10-23T13:40:40.370Z,6.42
2022-10-23T13:43:20.011Z,6.39
2022-10-23T13:45:49.182Z,6.38
2022-10-23T13:48:23.330Z,6.34
2022-10-23T13:50:52.552Z,6.35
2022-10-23T13:53:28.004Z,6.31
2022-10-23T13:55:58.723Z,6.30
2022-10-23T13:58:36.316Z,6.09
2022-10-23T14:01:05.632Z,6.20
2022-10-23T14:03:35.002Z,6.34
2022-10-23T14:06:04.766Z,6.28
2022-10-23T14:08:33.929Z,6.36
2022-10-23T14:11:03.750Z,6.35
2022-10-23T14:13:41.434Z,6.37
2022-10-23T14:16:13.425Z,6.38
2022-10-23T14:18:43.396Z,6.40
2022-10-23T14:21:14.914Z,6.38
2022-10-23T14:23:44.431Z,6.26
2022-10-23T14:26:15.156Z,6.37
2022-10-23T14:28:46.593Z,6.34
2022-10-23T14:31:17.706Z,6.40
2022-10-23T14:33:48.495Z,6.43
2022-10-23T14:39:07.211Z,6.45
2022-10-23T14:41:39.953Z,6.47
2022-10-23T14:44:11.760Z,6.46
2022-10-23T14:46:47.317Z,6.27
2022-10-23T14:49:16.595Z,6.48
2022-10-23T14:51:46.139Z,6.48
2022-10-23T14:54:15.488Z,6.42
2022-10-23T14:56:44.718Z,6.42
2022-10-23T14:59:15.914Z,6.37
2022-10-23T15:01:48.399Z,6.36
2022-10-23T15:04:18.360Z,6.26
2022-10-23T15:06:48.712Z,6.34
2022-10-23T15:09:19.225Z,6.36
2022-10-23T15:11:53.731Z,6.37
2022-10-23T15:14:25.361Z,6.39
2022-10-23T15:16:55.303Z,6.39
2022-10-23T15:19:24.479Z,6.42
2022-10-23T15:21:53.744Z,6.18
2022-10-23T15:24:34.373Z,6.43
2022-10-23T15:27:03.928Z,6.41
2022-10-23T15:29:35.110Z,6.47
2022-10-23T15:32:17.396Z,6.49
2022-10-23T15:34:49.201Z,6.27
2022-10-23T15:37:17.963Z,6.58
2022-10-23T15:39:47.028Z,6.53
2022-10-23T15:42:18.315Z,6.49
2022-10-23T15:44:49.514Z,6.52
2022-10-23T15:47:23.891Z,6.51
2022-10-23T15:49:53.014Z,6.47
2022-10-23T15:52:27.093Z,6.56
2022-10-23T15:54:56.250Z,6.53
2022-10-23T15:57:26.463Z,6.56
2022-10-23T15:59:57.691Z,6.54
2022-10-23T16:02:27.212Z,6.53
2022-10-23T16:04:56.548Z,6.54
2022-10-23T16:07:26.039Z,6.52
2022-10-23T16:09:55.130Z,6.53
2022-10-23T16:12:24.541Z,6.53
2022-10-23T16:14:55.952Z,6.56
2022-10-23T16:17:27.242Z,6.56
2022-10-23T16:19:56.888Z,6.56
2022-10-23T16:22:26.655Z,6.53
2022-10-23T16:24:56.030Z,6.58
2022-10-23T16:27:25.096Z,6.55
2022-10-23T16:29:54.860Z,6.54
2022-10-23T16:32:31.600Z,6.61
2022-10-23T16:35:00.783Z,6.57
2022-10-23T16:40:22.866Z,6.68
2022-10-23T16:43:10.915Z,6.54
2022-10-23T16:45:47.382Z,6.48
2022-10-23T16:48:18.534Z,6.42
2022-10-23T16:50:47.751Z,6.41
2022-10-23T16:56:09.018Z,6.44
2022-10-23T16:58:40.565Z,6.45
2022-10-23T17:01:14.372Z,6.44
2022-10-23T17:03:47.932Z,6.51
2022-10-23T17:06:19.280Z,6.53
2022-10-23T17:08:48.849Z,6.45
2022-10-23T17:11:20.357Z,6.57
2022-10-23T17:13:55.189Z,6.56
2022-10-23T17:16:29.992Z,6.60
2022-10-23T17:19:06.011Z,6.64
2022-10-23T17:24:20.108Z,6.57
2022-10-23T17:26:49.206Z,6.54
2022-10-23T17:29:18.859Z,6.54
2022-10-23T17:31:54.696Z,6.58
2022-10-23T17:34:25.878Z,6.58
2022-10-23T17:36:56.541Z,6.60
2022-10-23T17:39:28.225Z,6.63
2022-10-23T17:41:57.903Z,6.63
2022-10-23T17:44:28.885Z,6.56
2022-10-23T17:46:58.689Z,6.65
2022-10-23T17:49:30.203Z,6.63
2022-10-23T17:52:00.298Z,6.54
2022-10-23T17:54:30.039Z,6.60
2022-10-23T17:56:59.329Z,6.63
2022-10-23T17:59:28.557Z,6.64
2022-10-23T18:01:59.705Z,6.60
2022-10-23T18:04:31.155Z,6.58
2022-10-23T18:07:00.377Z,6.61
2022-10-23T18:09:29.474Z,6.55
2022-10-23T18:14:46.736Z,6.63
2022-10-23T18:17:17.301Z,6.62
2022-10-23T18:19:51.422Z,6.62
2022-10-23T18:22:20.649Z,6.60
2022-10-23T18:24:49.798Z,6.60
2022-10-23T18:27:20.109Z,6.63
2022-10-23T18:29:55.093Z,6.60
2022-10-23T18:32:24.332Z,6.60
2022-10-23T18:34:55.597Z,6.61
2022-10-23T18:37:28.859Z,6.59
2022-10-23T18:40:08.756Z,6.61
2022-10-23T18:42:43.716Z,6.62
2022-10-23T18:45:14.343Z,6.59
2022-10-23T18:47:48.874Z,6.47
2022-10-23T18:50:20.325Z,6.62
2022-10-23T18:52:49.714Z,6.61
2022-10-23T18:55:19.029Z,6.61
2022-10-23T18:57:48.441Z,6.57
2022-10-23T19:00:18.245Z,6.64
2022-10-23T19:02:52.117Z,6.63
2022-10-23T19:05:24.075Z,6.65
2022-10-23T19:07:54.521Z,6.68
2022-10-23T19:10:30.351Z,6.58
2022-10-23T19:12:59.657Z,6.77
2022-10-23T19:15:35.559Z,6.75
2022-10-23T19:18:05.573Z,6.80
2022-10-23T19:20:37.337Z,6.79
2022-10-23T19:23:07.728Z,6.94
2022-10-23T19:25:38.142Z,6.81
2022-10-23T19:28:08.697Z,6.69
2022-10-23T19:30:43.267Z,6.87
2022-10-23T19:33:13.065Z,6.86
2022-10-23T19:35:44.252Z,6.81
2022-10-23T19:38:13.554Z,6.87
2022-10-23T19:40:42.647Z,6.82
2022-10-23T19:43:11.796Z,6.81
2022-10-23T19:45:40.960Z,6.72
2022-10-23T19:48:10.253Z,6.70
2022-10-23T19:50:39.561Z,6.90
2022-10-23T19:53:10.922Z,6.87
2022-10-23T19:55:40.134Z,6.86
2022-10-23T19:58:09.490Z,6.89
2022-10-23T20:00:39.048Z,6.86
2022-10-23T20:03:08.225Z,6.80
2022-10-23T20:05:37.516Z,6.77
2022-10-23T20:08:07.205Z,6.75
2022-10-23T20:10:42.606Z,6.75
2022-10-23T20:13:19.865Z,6.77
2022-10-23T20:15:50.237Z,6.68
2022-10-23T20:18:19.333Z,6.67
2022-10-23T20:20:48.596Z,6.62
2022-10-23T20:23:22.801Z,6.65
2022-10-23T20:25:54.128Z,6.67
2022-10-23T20:28:29.341Z,6.66
2022-10-23T20:30:58.837Z,6.65
2022-10-23T20:33:33.089Z,6.63
2022-10-23T20:36:02.495Z,6.62
2022-10-23T20:38:31.940Z,6.64
2022-10-23T20:41:05.577Z,6.69
2022-10-23T20:43:35.766Z,6.64
2022-10-23T20:46:09.691Z,6.65
2022-10-23T20:48:39.983Z,6.60
2022-10-23T20:51:11.202Z,6.60
2022-10-23T20:53:41.104Z,6.56
2022-10-23T20:56:15.406Z,6.63
2022-10-23T20:58:44.757Z,6.53
2022-10-23T21:01:17.501Z,6.68
2022-10-23T21:03:52.093Z,6.70
2022-10-23T21:06:21.958Z,6.69
2022-10-23T21:08:51.025Z,6.71
2022-10-23T21:11:22.508Z,6.72
2022-10-23T21:13:51.880Z,6.71
2022-10-23T21:16:27.593Z,6.69
2022-10-23T21:18:58.490Z,6.73
2022-10-23T21:21:33.951Z,6.72
2022-10-23T21:24:08.971Z,6.70
2022-10-23T21:26:46.023Z,6.70
2022-10-23T21:29:19.878Z,6.60
2022-10-23T21:31:54.525Z,6.45
2022-10-23T21:34:24.233Z,6.52
2022-10-23T21:39:48.899Z,6.45
2022-10-23T21:42:20.183Z,6.40
2022-10-23T21:44:49.542Z,6.40
2022-10-23T21:47:18.538Z,6.37
2022-10-23T21:49:50.186Z,6.24
2022-10-23T21:52:19.969Z,6.28
2022-10-23T21:54:53.713Z,6.34
2022-10-23T21:57:29.952Z,6.28
2022-10-23T22:00:04.215Z,6.34
2022-10-23T22:02:42.542Z,6.35
2022-10-23T22:05:12.929Z,6.37
2022-10-23T22:07:42.478Z,6.38
2022-10-23T22:10:12.125Z,6.35
2022-10-23T22:12:48.156Z,6.30
2022-10-23T22:15:17.422Z,6.29
2022-10-23T22:17:47.187Z,6.29
2022-10-23T22:20:16.566Z,6.35
2022-10-23T22:22:45.921Z,6.36
2022-10-23T22:25:15.357Z,6.38
2022-10-23T22:27:51.971Z,6.37
2022-10-23T22:30:21.152Z,6.37
2022-10-23T22:32:51.019Z,6.35
2022-10-23T22:35:25.272Z,6.36
2022-10-23T22:37:54.410Z,6.35
2022-10-23T22:40:23.486Z,6.35
2022-10-23T22:42:54.528Z,6.17
2022-10-23T22:45:24.013Z,6.28
2022-10-23T22:47:53.138Z,6.21
2022-10-23T22:50:22.314Z,6.19
2022-10-23T22:52:51.375Z,6.15
2022-10-23T22:55:20.576Z,6.15
2022-10-23T22:57:49.677Z,6.12
2022-10-23T23:00:20.999Z,6.12
2022-10-23T23:02:50.307Z,6.05
2022-10-23T23:05:19.598Z,6.01
2022-10-23T23:07:48.899Z,6.00
2022-10-23T23:10:27.969Z,6.04
2022-10-23T23:12:57.096Z,6.01
2022-10-23T23:15:28.329Z,6.07
2022-10-23T23:17:57.909Z,6.10
2022-10-23T23:20:27.040Z,6.14
2022-10-23T23:23:01.446Z,6.14
2022-10-23T23:25:30.624Z,6.17
2022-10-23T23:27:59.796Z,6.09
2022-10-23T23:30:30.930Z,6.03
2022-10-23T23:33:00.130Z,6.05
2022-10-23T23:35:29.210Z,6.03
2022-10-23T23:37:58.731Z,6.02
2022-10-23T23:40:27.933Z,6.00
2022-10-23T23:43:02.314Z,6.02
2022-10-23T23:45:33.455Z,5.98
2022-10-23T23:48:02.611Z,5.97
2022-10-23T23:50:31.605Z,5.94
2022-10-23T23:53:00.742Z,5.88
2022-10-23T23:55:29.872Z,5.88
2022-10-23T23:57:59.187Z,5.91
